Aeroporto :
LOGIN :

Iscrizione | Disclaimer

   EN    FR    IT 

 










Sommario :    VFR   VFR Marginale   IFR   IFR Intensivo   IFR Molto Intensivo
Visibilità : 
Base nubi : 
>= 8 km
>= 3000ft
5 / 8 km
1000 / 3000 ft
1500m / 5 km
500 / 1000 ft
800 / 1500m
200 / 500 ft
< 800m
< 200 ft
Simboli :   Temporali  Nebbia  Neve Forte  Precipitazioni Forti  Vento > 20 kt
SIGMETs :   Varie  Temporali  Ghiacco  Turbolenza  Onda orograficha  Ceneri Vulcaniche






- Altitudine del aeroporto : 909 ft
- Codice IATA : KSF


EDVK - Kassel Calden

ULTIMO METAR :
  • 130850Z 21009KT 180V260 9999 BKN035 16/09 Q1012

METARs OBSOLETI :
  • 130820Z 23010KT 180V270 9999 SCT030 BKN038 17/09 Q1012
  • 130750Z 23012KT 200V260 9999 BKN032 16/09 Q1012
  • 130720Z 23009KT 190V270 9999 FEW020 BKN030 15/10 Q1012
  • 130650Z 22009KT 170V250 9999 SCT025TCU 15/10 Q1012
  • 130620Z 20008KT 170V230 9999 FEW026 15/10 Q1012
  • 130550Z 18007KT 150V220 9999 FEW015 SCT040 14/10 Q1012
  • 130520Z 18007KT 150V210 9999 SCT040 13/10 Q1012
  • 130450Z AUTO 20008KT 9999 // BKN039/// 13/10 Q1012

TAF TAF EDVK
Valido dal 13 a 09 ore il 13 a 18 ore UTC


130800Z 1309/1318 23012KT 9999 SCT040
PROB30
TEMPO 1310/1315 24015G25KT



MetMap, La meteo Aeronautica in un colpo d'occhio ! - Copyright ORBIFLY Dicembre 2007 - Disclaimer

ORBIFLY MET'MAP TEAM :

Programmazione e sviluppo : Alexandra Zaïnal
Concezione : Baudouin d'Aumeries
Supporto tecnico e logistico : Manuel Goepfert
Aiuto : Marc-Olivier Méhu
Aiuto per la traduzione : Arnaldo La Scala




FONTI E CREDITI :

   NOAA